Flight Track Log - Related Links

Times and Time Zones

All times are in EDT time to prevent confusion due to time zone crossing. See the SWA3675 flight status page for this flight to view local times or setup timezone preferences in your user account.

Time Position Orientation Groundspeed Altitude Reporting Facility
EDT Latitude Longitude Course Direction KTS MPH feet Rate Location/Type
Wed 05:52:08 PM 42.7319 -73.8081 200° South 151 174 1,300  Level Boston Center
Wed 05:53:02 PM 42.6942 -73.8269 200° South 199 229 3,300 2,231 Climbing Boston Center
Wed 05:53:26 PM 42.7000 -73.8611 283° West 227 261 4,200 2,951 Climbing Boston Center
Wed 05:54:03 PM 42.7308 -73.8958 320° Northwest 243 280 6,300 3,000 Climbing Boston Center
Wed 05:54:26 PM 42.7514 -73.9244 314° West 250 288 7,200 2,675 Climbing Boston Center
Wed 05:55:26 PM 42.7964 -73.9878 314° West 257 296 10,000 2,150 Climbing Boston Center
Wed 05:56:26 PM 42.8475 -74.0572 315° West 257 296 11,500 2,650 Climbing Boston Center
Wed 05:57:26 PM 42.8711 -74.1483 290° West 255 293 15,300 2,909 Climbing Boston Center
Wed 05:58:38 PM 42.7744 -74.1911 198° South 268 308 17,900 2,455 Climbing Boston Center
Wed 05:59:38 PM 42.6669 -74.1456 163° South 299 344 20,700 3,050 Climbing Boston Center
Wed 06:00:38 PM 42.5533 -74.0719 154° Southeast 359 413 24,000 3,400 Climbing Boston Center
Wed 06:01:38 PM 42.4561 -74.0161 157° South 393 452 27,500 2,000 Climbing Boston Center
Wed 06:02:38 PM 42.3528 -73.9517 155° Southeast 404 465 28,000 250 Climbing Boston Center
Wed 06:03:38 PM 42.2722 -73.9019 155° Southeast 409 471 28,000  Level Boston Center
Wed 06:04:38 PM 42.1439 -73.8289 157° South 414 476 28,000  Level Boston Center
Wed 06:05:38 PM 42.0425 -73.7653 155° Southeast 414 476 28,000  Level Boston Center
Wed 06:06:38 PM 41.9347 -73.7100 159° South 414 476 28,000  Level Boston Center
Wed 06:07:38 PM 41.8156 -73.7575 197° South 402 463 28,000  Level Boston Center
Wed 06:08:50 PM 41.6894 -73.8356 205° Southwest 417 480 28,000  Level Boston Center
Wed 06:11:06 PM 41.4022 -74.0183 206° Southwest 471 542 28,000  Level New York Center
Wed 06:12:07 PM 41.2794 -74.0950 205° Southwest 476 548 28,000  Level New York Center
Wed 06:13:04 PM 41.1583 -74.1744 206° Southwest 481 554 28,000  Level New York Center
Wed 06:14:05 PM 41.0292 -74.2478 203° Southwest 488 562 28,000  Level New York Center
Wed 06:15:07 PM 40.9058 -74.3292 207° Southwest 494 568 28,000  Level New York Center
Wed 06:16:04 PM 40.7889 -74.4108 208° Southwest 494 568 28,000 -356 Level New York Center
Wed 06:17:05 PM 40.6775 -74.5061 213° Southwest 489 563 27,300 -843 Descending New York Center
Wed 06:18:05 PM 40.5606 -74.5789 205° Southwest 484 557 26,300 -1,033 Descending New York Center
Wed 06:19:07 PM 40.4433 -74.6572 207° Southwest 478 550 25,200 -1,311 Descending New York Center
Wed 06:20:04 PM 40.3736 -74.8111 239° Southwest 437 503 23,700 -1,714 Descending New York Center
Wed 06:21:06 PM 40.3169 -74.9411 240° Southwest 431 496 21,800 -1,835 Descending New York Center
Wed 06:22:05 PM 40.2625 -75.0686 241° Southwest 415 478 20,000 -1,714 Descending New York Center
Wed 06:23:05 PM 40.2058 -75.1928 239° Southwest 404 465 18,400 -992 Descending New York Center
Wed 06:24:06 PM 40.1411 -75.3025 232° Southwest 404 465 18,000 -197 Descending New York Center
Wed 06:25:07 PM 40.0833 -75.3939 230° Southwest 379 436 18,000  Level New York Center
Wed 06:26:04 PM 40.0186 -75.5033 232° Southwest 358 412 18,000 51 Level New York Center
Wed 06:27:05 PM 39.9650 -75.5919 232° Southwest 353 406 18,100 -446 Climbing New York Center
Wed 06:28:05 PM 39.9042 -75.6986 233° Southwest 353 406 17,100 -992 Descending New York Center
Wed 06:29:06 PM 39.8567 -75.7872 235° Southwest 346 398 16,100 -1,008 Descending New York Center
Wed 06:30:04 PM 39.8286 -75.9069 253° West 321 369 15,100 -1,032 Descending New York Center
Wed 06:32:12 PM 39.7000 -76.0833 227° Southwest 316 364 12,900 -1,021 Descending Potomac TRACON
Wed 06:33:12 PM 39.6333 -76.1500 218° Southwest 306 352 11,900 -942 Descending Potomac TRACON
Wed 06:34:13 PM 39.5667 -76.2333 224° Southwest 305 351 11,000 -470 Descending Potomac TRACON
Wed 06:35:07 PM 39.5500 -76.3167 255° West 303 349 11,000  Level Potomac TRACON
Wed 06:36:07 PM 39.5667 -76.4167 282° West 302 348 11,000 -650 Level Potomac TRACON
Wed 06:37:07 PM 39.5667 -76.5333 270° West 305 351 9,700 -1,333 Descending Potomac TRACON
Wed 06:38:13 PM 39.5833 -76.6500 281° West 295 339 8,200 -843 Descending Potomac TRACON
Wed 06:39:08 PM 39.5500 -76.7167 237° Southwest 271 312 8,000 -737 Descending Potomac TRACON
Wed 06:40:07 PM 39.5000 -76.7833 226° Southwest 265 305 6,800 -1,210 Descending Potomac TRACON
Wed 06:41:07 PM 39.4333 -76.8167 201° Southwest 255 293 5,600 -1,158 Descending Potomac TRACON
Wed 06:42:01 PM 39.3667 -76.8333 191° South 246 283 4,600 -800 Descending Potomac TRACON
Wed 06:43:07 PM 39.3000 -76.8667 201° Southwest 230 265 4,000 -350 Descending Potomac TRACON
Wed 06:44:01 PM 39.2500 -76.9000 207° Southwest 207 238 3,900 -417 Descending Potomac TRACON
Wed 06:45:02 PM 39.2000 -76.9333 207° Southwest 190 219 3,200 -793 Descending Potomac TRACON
Wed 06:46:02 PM 39.1833 -76.8833 113° Southeast 177 204 2,300 -600 Descending Potomac TRACON
Wed 06:47:02 PM 39.1833 -76.8167 90° East 153 176 2,000 -500 Descending Potomac TRACON
Wed 06:48:02 PM 39.1833 -76.7667 90° East 143 165 1,300 -700 Descending Potomac TRACON
Wed 06:49:02 PM 39.1833 -76.7167 90° East 126 145 600 -700 Descending Potomac TRACON

Login

Don't have an account? Register now (free) for customized features, flight alerts, and more!